createdAt,value
2017-02-20T00:00:37.644Z,0
2017-02-20T00:01:38.002Z,0
2017-02-20T00:02:37.998Z,0
2017-02-20T00:03:37.989Z,0
2017-02-20T00:04:37.953Z,0
2017-02-20T00:05:37.944Z,0
2017-02-20T00:06:37.913Z,0
2017-02-20T00:07:37.106Z,0
2017-02-20T00:08:37.871Z,0
2017-02-20T00:09:37.860Z,0
2017-02-20T00:10:37.453Z,0
2017-02-20T00:11:37.842Z,0
2017-02-20T00:12:37.795Z,0
2017-02-20T00:13:37.390Z,0
2017-02-20T00:14:37.778Z,0
2017-02-20T00:15:37.369Z,0
2017-02-20T00:16:37.726Z,0
2017-02-20T00:17:37.706Z,0
2017-02-20T00:18:37.700Z,0
2017-02-20T00:19:37.681Z,0
2017-02-20T00:20:37.668Z,0
2017-02-20T00:21:37.640Z,0
2017-02-20T00:22:37.611Z,0
2017-02-20T00:23:37.608Z,0
2017-02-20T00:24:37.587Z,0
2017-02-20T00:25:37.565Z,0
2017-02-20T00:26:37.544Z,0
2017-02-20T00:27:37.523Z,0
2017-02-20T00:28:37.508Z,0
2017-02-20T00:29:37.504Z,0
2017-02-20T00:30:37.466Z,0
2017-02-20T00:31:37.448Z,0
2017-02-20T00:32:37.435Z,0
2017-02-20T00:33:37.409Z,0
2017-02-20T00:34:37.395Z,0
2017-02-20T00:35:37.587Z,0
2017-02-20T00:36:37.377Z,0
2017-02-20T00:37:37.357Z,0
2017-02-20T00:38:37.334Z,0
2017-02-20T00:39:37.321Z,0
2017-02-20T00:40:37.308Z,0
2017-02-20T00:41:37.295Z,0
2017-02-20T00:42:37.243Z,0
2017-02-20T00:43:37.233Z,0
2017-02-20T00:44:37.221Z,0
2017-02-20T00:45:37.231Z,0
2017-02-20T00:46:37.170Z,0
2017-02-20T00:47:37.160Z,0
2017-02-20T00:48:37.161Z,0
2017-02-20T00:49:37.128Z,0
2017-02-20T00:50:37.138Z,0
2017-02-20T00:51:37.120Z,0
2017-02-20T00:52:37.078Z,0
2017-02-20T00:53:37.054Z,0
2017-02-20T00:54:36.636Z,0
2017-02-20T00:55:36.624Z,0
2017-02-20T00:56:37.002Z,0
2017-02-20T00:57:36.996Z,0
2017-02-20T00:58:36.627Z,0
2017-02-20T00:59:36.978Z,0
2017-02-20T01:00:36.962Z,0
2017-02-20T01:01:36.520Z,0
2017-02-20T01:02:36.926Z,0
2017-02-20T01:03:36.875Z,0
2017-02-20T01:04:36.470Z,0
2017-02-20T01:05:36.836Z,0
2017-02-20T01:06:36.833Z,0
2017-02-20T01:07:36.813Z,0
2017-02-20T01:08:36.813Z,0
2017-02-20T01:09:36.774Z,0
2017-02-20T01:10:36.750Z,0
2017-02-20T01:11:36.737Z,0
2017-02-20T01:12:36.708Z,0
2017-02-20T01:13:36.695Z,0
2017-02-20T01:14:36.686Z,0
2017-02-20T01:15:36.661Z,0
2017-02-20T01:16:36.634Z,0
2017-02-20T01:17:36.634Z,0
2017-02-20T01:18:36.602Z,0
2017-02-20T01:19:36.584Z,0
2017-02-20T01:20:36.180Z,0
2017-02-20T01:21:36.574Z,0
2017-02-20T01:22:36.539Z,0
2017-02-20T01:23:36.522Z,0
2017-02-20T01:24:36.485Z,0
2017-02-20T01:25:35.682Z,0
2017-02-20T01:26:36.056Z,0
2017-02-20T01:27:36.448Z,0
2017-02-20T01:28:36.408Z,0
2017-02-20T01:29:36.412Z,0
2017-02-20T01:30:36.377Z,0
2017-02-20T01:31:36.363Z,0
2017-02-20T01:32:36.364Z,0
2017-02-20T01:33:36.339Z,0
2017-02-20T01:34:36.316Z,0
2017-02-20T01:35:36.291Z,0
2017-02-20T01:36:35.880Z,0
2017-02-20T01:37:36.253Z,0
2017-02-20T01:38:36.242Z,0
2017-02-20T01:39:36.234Z,0
2017-02-20T01:40:35.810Z,0
2017-02-20T01:41:36.182Z,0
2017-02-20T01:42:36.163Z,0
2017-02-20T01:43:35.761Z,0
2017-02-20T01:44:35.726Z,0
2017-02-20T01:45:35.742Z,0
2017-02-20T01:46:36.089Z,0
2017-02-20T01:47:35.691Z,0
2017-02-20T01:48:36.052Z,0
2017-02-20T01:49:36.043Z,0
2017-02-20T01:50:36.020Z,0
2017-02-20T01:51:36.025Z,0
2017-02-20T01:52:35.592Z,0
2017-02-20T01:53:35.961Z,0
2017-02-20T01:54:35.962Z,0
2017-02-20T01:55:35.947Z,0
2017-02-20T01:56:35.934Z,0
2017-02-20T01:57:35.898Z,0
2017-02-20T01:58:35.878Z,0
2017-02-20T01:59:35.858Z,0
2017-02-20T02:00:35.847Z,0
2017-02-20T02:01:35.838Z,0
2017-02-20T02:02:35.806Z,0
2017-02-20T02:03:35.776Z,0
2017-02-20T02:04:35.784Z,0
2017-02-20T02:05:35.772Z,0
2017-02-20T02:06:35.726Z,0
2017-02-20T02:07:35.703Z,0
2017-02-20T02:08:35.685Z,0
2017-02-20T02:09:35.677Z,0
2017-02-20T02:10:35.261Z,0
2017-02-20T02:11:35.640Z,0
2017-02-20T02:12:35.624Z,0
2017-02-20T02:13:35.591Z,0
2017-02-20T02:14:35.578Z,0
2017-02-20T02:15:35.577Z,0
2017-02-20T02:16:35.545Z,0
2017-02-20T02:17:35.564Z,0
2017-02-20T02:18:35.529Z,0
2017-02-20T02:19:35.492Z,0
2017-02-20T02:20:35.481Z,0
2017-02-20T02:21:35.485Z,0
2017-02-20T02:22:35.462Z,0
2017-02-20T02:23:35.434Z,0
2017-02-20T02:24:35.405Z,0
2017-02-20T02:25:34.585Z,0
2017-02-20T02:26:34.962Z,0
2017-02-20T02:27:35.351Z,0
2017-02-20T02:28:34.955Z,0
2017-02-20T02:29:34.535Z,0
2017-02-20T02:30:35.300Z,0
2017-02-20T02:31:35.283Z,0
2017-02-20T02:32:35.265Z,0
2017-02-20T02:33:35.258Z,0
2017-02-20T02:34:35.228Z,0
2017-02-20T02:35:35.413Z,0
2017-02-20T02:36:35.203Z,0
2017-02-20T02:37:35.217Z,0
2017-02-20T02:38:35.155Z,0
2017-02-20T02:39:35.129Z,0
2017-02-20T02:40:34.313Z,0
2017-02-20T02:41:35.168Z,0
2017-02-20T02:42:35.088Z,0
2017-02-20T02:43:35.098Z,0
2017-02-20T02:44:35.059Z,0
2017-02-20T02:45:35.025Z,0
2017-02-20T02:46:35.010Z,0
2017-02-20T02:47:34.609Z,0
2017-02-20T02:48:34.980Z,0
2017-02-20T02:49:34.946Z,0
2017-02-20T02:50:34.932Z,0
2017-02-20T02:51:34.924Z,0
2017-02-20T02:52:34.916Z,0
2017-02-20T02:53:34.885Z,0
2017-02-20T02:54:34.478Z,0
2017-02-20T02:55:34.848Z,0
2017-02-20T02:56:34.831Z,0
2017-02-20T02:57:34.823Z,0
2017-02-20T02:58:34.821Z,0
2017-02-20T02:59:34.790Z,0
2017-02-20T03:00:34.761Z,0
2017-02-20T03:01:34.746Z,0
2017-02-20T03:02:34.727Z,0
2017-02-20T03:03:34.722Z,0
2017-02-20T03:04:34.697Z,0
2017-02-20T03:05:34.681Z,0
2017-02-20T03:06:34.645Z,0
2017-02-20T03:07:34.622Z,0
2017-02-20T03:08:34.614Z,0
2017-02-20T03:09:34.619Z,0
2017-02-20T03:10:34.584Z,0
2017-02-20T03:11:34.557Z,0
2017-02-20T03:12:34.535Z,0
2017-02-20T03:13:34.529Z,0
2017-02-20T03:14:34.511Z,0
2017-02-20T03:15:34.485Z,0
2017-02-20T03:16:34.070Z,0
2017-02-20T03:17:34.496Z,0
2017-02-20T03:18:34.437Z,0
2017-02-20T03:19:34.432Z,0
2017-02-20T03:20:34.395Z,0
2017-02-20T03:21:34.379Z,0
2017-02-20T03:22:34.374Z,0
2017-02-20T03:23:34.340Z,0
2017-02-20T03:24:34.328Z,0
2017-02-20T03:25:34.309Z,0
2017-02-20T03:26:34.295Z,0
2017-02-20T03:27:34.273Z,0
2017-02-20T03:28:34.284Z,0
2017-02-20T03:29:34.245Z,0
2017-02-20T03:30:34.241Z,0
2017-02-20T03:31:34.213Z,0
2017-02-20T03:32:34.226Z,0
2017-02-20T03:33:33.775Z,0
2017-02-20T03:34:33.769Z,0
2017-02-20T03:35:34.135Z,0
2017-02-20T03:36:34.114Z,0
2017-02-20T03:37:34.104Z,0
2017-02-20T03:38:34.093Z,0
2017-02-20T03:39:34.064Z,0
2017-02-20T03:40:34.034Z,0
2017-02-20T03:41:34.020Z,0
2017-02-20T03:42:34.010Z,0
2017-02-20T03:43:34.000Z,0
2017-02-20T03:44:33.976Z,0
2017-02-20T03:45:33.972Z,0
2017-02-20T03:46:33.553Z,0
2017-02-20T03:47:33.922Z,0
2017-02-20T03:48:33.910Z,0
2017-02-20T03:49:33.890Z,0
2017-02-20T03:50:33.882Z,0
2017-02-20T03:51:33.931Z,0
2017-02-20T03:52:33.463Z,0
2017-02-20T03:53:33.826Z,0
2017-02-20T03:54:33.406Z,0
2017-02-20T03:55:33.788Z,0
2017-02-20T03:56:33.769Z,0
2017-02-20T03:57:33.747Z,0
2017-02-20T03:58:33.722Z,0
2017-02-20T03:59:33.734Z,0
2017-02-20T04:00:33.296Z,0
2017-02-20T04:01:33.674Z,0
2017-02-20T04:02:33.658Z,0
2017-02-20T04:03:33.652Z,0
2017-02-20T04:04:33.621Z,0
2017-02-20T04:05:33.606Z,0
2017-02-20T04:06:33.188Z,0
2017-02-20T04:07:33.564Z,0
2017-02-20T04:08:33.555Z,0
2017-02-20T04:09:33.546Z,0
2017-02-20T04:10:33.143Z,0
2017-02-20T04:11:33.507Z,0
2017-02-20T04:12:33.478Z,0
2017-02-20T04:13:33.465Z,0
2017-02-20T04:14:33.066Z,0
2017-02-20T04:15:33.436Z,0
2017-02-20T04:16:33.407Z,0
2017-02-20T04:17:33.418Z,0
2017-02-20T04:18:33.387Z,0
2017-02-20T04:19:33.356Z,0
2017-02-20T04:20:33.344Z,0
2017-02-20T04:21:33.410Z,0
2017-02-20T04:22:33.334Z,0
2017-02-20T04:23:32.104Z,0
2017-02-20T04:24:32.882Z,0
2017-02-20T04:25:33.244Z,0
2017-02-20T04:26:32.847Z,0
2017-02-20T04:27:33.230Z,0
2017-02-20T04:28:33.200Z,0
2017-02-20T04:29:33.196Z,0
2017-02-20T04:30:33.162Z,0
2017-02-20T04:31:32.745Z,0
2017-02-20T04:32:33.129Z,0
2017-02-20T04:33:32.719Z,0
2017-02-20T04:34:33.099Z,0
2017-02-20T04:35:33.276Z,0
2017-02-20T04:36:33.065Z,0
2017-02-20T04:37:33.034Z,0
2017-02-20T04:38:33.027Z,0
2017-02-20T04:39:33.023Z,0
2017-02-20T04:40:32.607Z,0
2017-02-20T04:41:33.014Z,0
2017-02-20T04:42:32.956Z,0
2017-02-20T04:43:32.543Z,0
2017-02-20T04:44:32.920Z,0
2017-02-20T04:45:32.900Z,0
2017-02-20T04:46:32.894Z,0
2017-02-20T04:47:32.871Z,0
2017-02-20T04:48:32.853Z,0
2017-02-20T04:49:32.051Z,0
2017-02-20T04:50:32.020Z,0
2017-02-20T04:51:32.795Z,0
2017-02-20T04:52:32.780Z,0
2017-02-20T04:53:32.766Z,0
2017-02-20T04:54:32.338Z,0
2017-02-20T04:55:32.721Z,0
2017-02-20T04:56:32.706Z,0
2017-02-20T04:57:32.675Z,0
2017-02-20T04:58:32.301Z,0
2017-02-20T04:59:32.259Z,0
2017-02-20T05:00:32.623Z,0
2017-02-20T05:01:32.611Z,0
2017-02-20T05:02:32.586Z,0
2017-02-20T05:03:32.179Z,0
2017-02-20T05:04:32.160Z,0
2017-02-20T05:05:32.551Z,0
2017-02-20T05:06:32.520Z,0
2017-02-20T05:07:32.513Z,0
2017-02-20T05:08:32.495Z,0
2017-02-20T05:09:32.475Z,0
2017-02-20T05:10:32.448Z,0
2017-02-20T05:11:32.449Z,0
2017-02-20T05:12:32.442Z,0
2017-02-20T05:13:32.448Z,0
2017-02-20T05:14:32.397Z,0
2017-02-20T05:15:32.354Z,0
2017-02-20T05:16:32.342Z,0
2017-02-20T05:17:32.333Z,0
2017-02-20T05:18:32.318Z,0
2017-02-20T05:19:32.324Z,0
2017-02-20T05:20:32.285Z,0
2017-02-20T05:21:32.275Z,0
2017-02-20T05:22:32.258Z,0
2017-02-20T05:23:32.224Z,0
2017-02-20T05:24:32.199Z,0
2017-02-20T05:25:32.199Z,0
2017-02-20T05:26:31.792Z,0
2017-02-20T05:27:31.765Z,0
2017-02-20T05:28:32.128Z,0
2017-02-20T05:29:32.118Z,0
2017-02-20T05:30:31.724Z,0
2017-02-20T05:31:32.101Z,0
2017-02-20T05:32:32.065Z,0
2017-02-20T05:33:32.050Z,0
2017-02-20T05:34:31.623Z,0
2017-02-20T05:35:32.020Z,0
2017-02-20T05:36:32.000Z,0
2017-02-20T05:37:31.980Z,0
2017-02-20T05:38:31.976Z,0
2017-02-20T05:39:31.946Z,0
2017-02-20T05:40:31.932Z,0
2017-02-20T05:41:31.110Z,0
2017-02-20T05:42:31.936Z,0
2017-02-20T05:43:31.874Z,0
2017-02-20T05:44:31.450Z,0
2017-02-20T05:45:31.455Z,0
2017-02-20T05:46:31.835Z,0
2017-02-20T05:47:31.400Z,0
2017-02-20T05:48:31.795Z,0
2017-02-20T05:49:31.774Z,0
2017-02-20T05:50:31.764Z,0
2017-02-20T05:51:31.720Z,0
2017-02-20T05:52:31.708Z,0
2017-02-20T05:53:31.690Z,0
2017-02-20T05:54:30.923Z,0
2017-02-20T05:55:31.685Z,0
2017-02-20T05:56:31.250Z,0
2017-02-20T05:57:31.260Z,0
2017-02-20T05:58:31.616Z,0
2017-02-20T05:59:31.202Z,0
2017-02-20T06:00:31.590Z,0
2017-02-20T06:01:30.767Z,0
2017-02-20T06:02:31.537Z,0
2017-02-20T06:03:30.737Z,0
2017-02-20T06:04:31.500Z,0
2017-02-20T06:05:31.074Z,0
2017-02-20T06:06:31.468Z,0
2017-02-20T06:07:31.438Z,0
2017-02-20T06:08:31.439Z,0
2017-02-20T06:09:31.014Z,0
2017-02-20T06:10:31.423Z,4
2017-02-20T06:11:30.980Z,4
2017-02-20T06:12:31.363Z,4
2017-02-20T06:13:31.336Z,4
2017-02-20T06:14:31.320Z,4
2017-02-20T06:15:31.300Z,4
2017-02-20T06:16:30.877Z,4
2017-02-20T06:17:31.263Z,4
2017-02-20T06:18:31.258Z,8
2017-02-20T06:19:31.229Z,8
2017-02-20T06:20:31.209Z,8
2017-02-20T06:21:31.207Z,8
2017-02-20T06:22:30.782Z,12
2017-02-20T06:23:31.182Z,16
2017-02-20T06:24:31.156Z,16
2017-02-20T06:25:31.112Z,16
2017-02-20T06:26:31.112Z,20
2017-02-20T06:27:31.097Z,16
2017-02-20T06:28:30.664Z,20
2017-02-20T06:29:31.051Z,20
2017-02-20T06:30:31.065Z,24
2017-02-20T06:31:31.004Z,28
2017-02-20T06:32:30.996Z,28
2017-02-20T06:33:30.986Z,32
2017-02-20T06:34:30.962Z,36
2017-02-20T06:35:31.149Z,44
2017-02-20T06:36:30.937Z,44
2017-02-20T06:37:30.932Z,48
2017-02-20T06:38:30.921Z,60
2017-02-20T06:39:30.872Z,68
2017-02-20T06:40:30.462Z,72
2017-02-20T06:41:30.831Z,76
2017-02-20T06:42:30.830Z,100
2017-02-20T06:43:30.808Z,108
2017-02-20T06:44:30.797Z,128
2017-02-20T06:45:30.784Z,140
2017-02-20T06:46:30.748Z,148
2017-02-20T06:47:30.336Z,160
2017-02-20T06:48:30.727Z,168
2017-02-20T06:49:30.693Z,180
2017-02-20T06:50:30.695Z,196
2017-02-20T06:51:30.656Z,196
2017-02-20T06:52:30.244Z,180
2017-02-20T06:53:30.631Z,248
2017-02-20T06:54:30.210Z,300
2017-02-20T06:55:30.590Z,328
2017-02-20T06:56:30.568Z,296
2017-02-20T06:57:30.559Z,312
2017-02-20T06:58:30.527Z,396
2017-02-20T06:59:30.120Z,448
2017-02-20T07:00:30.101Z,420
2017-02-20T07:01:30.494Z,428
2017-02-20T07:02:30.474Z,408
2017-02-20T07:03:30.452Z,388
2017-02-20T07:04:30.431Z,444
2017-02-20T07:05:30.409Z,464
2017-02-20T07:06:30.402Z,484
2017-02-20T07:07:30.376Z,564
2017-02-20T07:08:30.357Z,540
2017-02-20T07:09:30.332Z,512
2017-02-20T07:10:30.319Z,596
2017-02-20T07:11:30.307Z,632
2017-02-20T07:12:29.895Z,636
2017-02-20T07:13:30.261Z,608
2017-02-20T07:14:30.261Z,596
2017-02-20T07:15:30.226Z,600
2017-02-20T07:16:29.845Z,560
2017-02-20T07:17:30.222Z,592
2017-02-20T07:18:30.192Z,680
2017-02-20T07:19:30.161Z,624
2017-02-20T07:20:30.148Z,688
2017-02-20T07:21:30.143Z,772
2017-02-20T07:22:30.108Z,768
2017-02-20T07:23:30.104Z,1052
2017-02-20T07:24:30.088Z,1120
2017-02-20T07:25:29.664Z,1008
2017-02-20T07:26:30.027Z,976
2017-02-20T07:27:30.037Z,908
2017-02-20T07:28:29.997Z,828
2017-02-20T07:29:29.985Z,1020
2017-02-20T07:30:29.961Z,1112
2017-02-20T07:31:29.954Z,1052
2017-02-20T07:32:29.541Z,792
2017-02-20T07:33:29.522Z,708
2017-02-20T07:34:29.892Z,708
2017-02-20T07:35:29.884Z,816
2017-02-20T07:36:29.866Z,940
2017-02-20T07:37:29.837Z,824
2017-02-20T07:38:29.834Z,936
2017-02-20T07:39:29.416Z,952
2017-02-20T07:40:29.802Z,1004
2017-02-20T07:41:29.791Z,988
2017-02-20T07:42:29.400Z,932
2017-02-20T07:43:29.736Z,984
2017-02-20T07:44:29.715Z,1032
2017-02-20T07:45:29.703Z,824
2017-02-20T07:46:29.702Z,944
2017-02-20T07:47:29.674Z,936
2017-02-20T07:48:29.640Z,976
2017-02-20T07:49:29.629Z,1180
2017-02-20T07:50:29.637Z,1120
2017-02-20T07:51:29.597Z,1160
2017-02-20T07:52:29.593Z,1040
2017-02-20T07:53:29.166Z,1092
2017-02-20T07:54:29.159Z,976
2017-02-20T07:55:29.127Z,1200
2017-02-20T07:56:29.504Z,1032
2017-02-20T07:57:29.106Z,1204
2017-02-20T07:58:29.473Z,1124
2017-02-20T07:59:29.071Z,1244
2017-02-20T08:00:29.050Z,1008
2017-02-20T08:01:28.623Z,936
2017-02-20T08:02:29.006Z,1136
2017-02-20T08:03:29.003Z,1016
2017-02-20T08:04:29.375Z,1116
2017-02-20T08:05:29.354Z,1176
2017-02-20T08:06:29.338Z,1176
2017-02-20T08:07:29.315Z,1292
2017-02-20T08:08:29.305Z,1568
2017-02-20T08:09:29.284Z,1548
2017-02-20T08:10:29.272Z,1600
2017-02-20T08:11:29.246Z,1732
2017-02-20T08:12:29.252Z,1388
2017-02-20T08:13:29.257Z,1548
2017-02-20T08:14:29.215Z,1504
2017-02-20T08:15:28.786Z,1548
2017-02-20T08:16:29.187Z,1548
2017-02-20T08:17:29.150Z,1556
2017-02-20T08:18:29.145Z,1648
2017-02-20T08:19:29.116Z,1620
2017-02-20T08:20:29.084Z,1424
2017-02-20T08:21:28.688Z,1504
2017-02-20T08:22:29.066Z,1540
2017-02-20T08:23:29.041Z,1412
2017-02-20T08:24:29.064Z,1332
2017-02-20T08:25:29.011Z,1488
2017-02-20T08:26:28.593Z,1492
2017-02-20T08:27:28.970Z,1380
2017-02-20T08:28:28.955Z,1544
2017-02-20T08:29:28.950Z,1460
2017-02-20T08:30:28.926Z,1820
2017-02-20T08:31:28.908Z,1912
2017-02-20T08:32:28.489Z,1972
2017-02-20T08:33:28.864Z,1844
2017-02-20T08:34:28.455Z,1504
2017-02-20T08:35:29.043Z,1540
2017-02-20T08:36:28.832Z,1520
2017-02-20T08:37:28.817Z,1736
2017-02-20T08:38:28.394Z,1424
2017-02-20T08:39:28.756Z,1724
2017-02-20T08:40:28.758Z,1624
2017-02-20T08:41:28.739Z,1532
2017-02-20T08:42:28.718Z,1664
2017-02-20T08:43:28.694Z,1492
2017-02-20T08:44:28.676Z,1828
2017-02-20T08:45:28.666Z,1564
2017-02-20T08:46:28.641Z,1572
2017-02-20T08:47:28.629Z,1252
2017-02-20T08:48:28.607Z,1360
2017-02-20T08:49:28.197Z,1552
2017-02-20T08:50:28.560Z,1584
2017-02-20T08:51:28.157Z,1400
2017-02-20T08:52:28.545Z,1328
2017-02-20T08:53:28.524Z,1436
2017-02-20T08:54:28.508Z,1360
2017-02-20T08:55:28.083Z,1440
2017-02-20T08:56:28.064Z,1512
2017-02-20T08:57:28.446Z,1444
2017-02-20T08:58:28.033Z,1588
2017-02-20T08:59:27.618Z,1584
2017-02-20T09:00:28.426Z,1680
2017-02-20T09:01:28.400Z,1516
2017-02-20T09:02:28.362Z,1608
2017-02-20T09:03:28.365Z,2076
2017-02-20T09:04:27.921Z,2064
2017-02-20T09:05:28.298Z,1752
2017-02-20T09:06:27.897Z,2064
2017-02-20T09:07:28.266Z,2140
2017-02-20T09:08:27.860Z,2052
2017-02-20T09:09:28.232Z,2140
2017-02-20T09:10:27.833Z,1704
2017-02-20T09:11:27.814Z,2096
2017-02-20T09:12:27.784Z,1964
2017-02-20T09:13:28.170Z,1928
2017-02-20T09:14:28.158Z,2128
2017-02-20T09:15:28.129Z,2316
2017-02-20T09:16:27.731Z,2588
2017-02-20T09:17:28.116Z,2060
2017-02-20T09:18:28.091Z,1880
2017-02-20T09:19:27.681Z,1500
2017-02-20T09:20:28.044Z,1516
2017-02-20T09:21:28.030Z,1476
2017-02-20T09:22:28.007Z,1556
2017-02-20T09:23:28.004Z,1592
2017-02-20T09:24:28.003Z,1776
2017-02-20T09:25:27.568Z,1780
2017-02-20T09:26:27.939Z,1820
2017-02-20T09:27:27.529Z,1640
2017-02-20T09:28:27.915Z,1860
2017-02-20T09:29:27.492Z,1668
2017-02-20T09:30:27.866Z,1816
2017-02-20T09:31:27.851Z,1560
2017-02-20T09:32:27.834Z,1656
2017-02-20T09:33:27.838Z,1688
2017-02-20T09:34:27.806Z,2000
2017-02-20T09:35:27.796Z,1852
2017-02-20T09:36:27.770Z,1832
2017-02-20T09:37:27.754Z,1748
2017-02-20T09:38:27.743Z,1812
2017-02-20T09:39:27.326Z,1896
2017-02-20T09:40:27.700Z,1976
2017-02-20T09:41:27.711Z,1804
2017-02-20T09:42:27.679Z,1592
2017-02-20T09:43:27.668Z,1540
2017-02-20T09:44:27.263Z,1436
2017-02-20T09:45:27.847Z,1424
2017-02-20T09:46:27.227Z,1432
2017-02-20T09:47:27.579Z,1316
2017-02-20T09:48:27.165Z,1312
2017-02-20T09:49:27.149Z,1296
2017-02-20T09:50:27.536Z,1276
2017-02-20T09:51:27.532Z,1312
2017-02-20T09:52:27.495Z,1228
2017-02-20T09:53:27.503Z,1212
2017-02-20T09:54:27.463Z,1208
2017-02-20T09:55:27.456Z,1312
2017-02-20T09:56:27.424Z,1144
2017-02-20T09:57:27.416Z,1168
2017-02-20T09:58:27.394Z,1176
2017-02-20T09:59:26.979Z,1160
2017-02-20T10:00:27.353Z,1188
2017-02-20T10:01:27.340Z,1212
2017-02-20T10:02:27.347Z,1308
2017-02-20T10:03:26.910Z,1184
2017-02-20T10:04:27.314Z,1324
2017-02-20T10:05:26.882Z,1248
2017-02-20T10:06:27.269Z,1496
2017-02-20T10:07:26.844Z,1624
2017-02-20T10:08:27.230Z,1652
2017-02-20T10:09:27.209Z,1892
2017-02-20T10:10:27.203Z,1940
2017-02-20T10:11:26.786Z,1812
2017-02-20T10:12:27.148Z,1888
2017-02-20T10:13:27.138Z,2088
2017-02-20T10:14:27.123Z,1808
2017-02-20T10:15:27.112Z,1980
2017-02-20T10:16:27.090Z,1700
2017-02-20T10:17:26.681Z,1628
2017-02-20T10:18:27.067Z,1684
2017-02-20T10:19:26.240Z,1620
2017-02-20T10:20:27.023Z,1612
2017-02-20T10:21:26.597Z,1772
2017-02-20T10:22:26.601Z,2048
2017-02-20T10:23:26.973Z,2296
2017-02-20T10:24:26.943Z,2536
2017-02-20T10:25:26.932Z,2460
2017-02-20T10:26:26.912Z,2436
2017-02-20T10:27:26.920Z,2944
2017-02-20T10:28:26.888Z,2784
2017-02-20T10:29:26.472Z,3156
2017-02-20T10:30:26.859Z,2440
2017-02-20T10:31:26.845Z,2060
2017-02-20T10:32:26.816Z,2272
2017-02-20T10:33:26.804Z,2240
2017-02-20T10:34:26.787Z,2584
2017-02-20T10:35:27.188Z,3052
2017-02-20T10:36:26.759Z,2920
2017-02-20T10:37:26.725Z,2620
2017-02-20T10:38:26.731Z,2992
2017-02-20T10:39:26.711Z,3252
2017-02-20T10:40:26.673Z,3016
2017-02-20T10:41:26.663Z,3568
2017-02-20T10:42:26.650Z,4788
2017-02-20T10:43:26.631Z,4888
2017-02-20T10:44:26.626Z,3352
2017-02-20T10:45:26.586Z,3240
2017-02-20T10:46:26.606Z,3080
2017-02-20T10:47:26.165Z,3592
2017-02-20T10:48:26.542Z,4060
2017-02-20T10:49:26.544Z,4936
2017-02-20T10:50:26.513Z,4856
2017-02-20T10:51:26.519Z,4276
2017-02-20T10:52:26.475Z,4888
2017-02-20T10:53:26.462Z,3872
2017-02-20T10:54:26.439Z,3744
2017-02-20T10:55:25.630Z,4168
2017-02-20T10:56:26.025Z,4424
2017-02-20T10:57:25.600Z,4336
2017-02-20T10:58:26.380Z,3364
2017-02-20T10:59:26.383Z,2612
2017-02-20T11:00:26.356Z,2756
2017-02-20T11:01:26.332Z,2644
2017-02-20T11:02:25.927Z,4088
2017-02-20T11:03:26.287Z,3184
2017-02-20T11:04:26.276Z,4040
2017-02-20T11:05:26.256Z,3604
2017-02-20T11:06:26.247Z,2892
2017-02-20T11:07:25.830Z,3248
2017-02-20T11:08:26.212Z,3016
2017-02-20T11:09:26.205Z,2948
2017-02-20T11:10:25.418Z,3096
2017-02-20T11:11:25.782Z,2936
2017-02-20T11:12:25.376Z,2976
2017-02-20T11:13:26.120Z,3108
2017-02-20T11:14:25.708Z,2956
2017-02-20T11:15:25.695Z,2396
2017-02-20T11:16:25.688Z,2400
2017-02-20T11:17:26.051Z,3120
2017-02-20T11:18:25.637Z,3364
2017-02-20T11:19:26.036Z,3188
2017-02-20T11:20:26.001Z,3140
2017-02-20T11:21:25.989Z,2760
2017-02-20T11:22:25.988Z,3156
2017-02-20T11:23:25.554Z,2616
2017-02-20T11:24:25.940Z,2548
2017-02-20T11:25:25.938Z,3124
2017-02-20T11:26:25.519Z,3176
2017-02-20T11:27:25.887Z,3300
2017-02-20T11:28:25.884Z,2956
2017-02-20T11:29:25.478Z,3108
2017-02-20T11:30:25.861Z,2536
2017-02-20T11:31:25.416Z,2612
2017-02-20T11:32:25.799Z,2436
2017-02-20T11:33:25.782Z,2232
2017-02-20T11:34:25.822Z,2832
2017-02-20T11:35:25.765Z,2764
2017-02-20T11:36:25.740Z,2908
2017-02-20T11:37:25.716Z,2592
2017-02-20T11:38:25.736Z,2948
2017-02-20T11:39:25.296Z,2608
2017-02-20T11:40:25.685Z,2988
2017-02-20T11:41:25.664Z,3228
2017-02-20T11:42:25.655Z,3212
2017-02-20T11:43:25.216Z,3344
2017-02-20T11:44:25.199Z,2936
2017-02-20T11:45:25.183Z,3124
2017-02-20T11:46:25.182Z,2852
2017-02-20T11:47:25.155Z,2828
2017-02-20T11:48:25.142Z,3068
2017-02-20T11:49:25.533Z,2936
2017-02-20T11:50:25.503Z,2772
2017-02-20T11:51:25.110Z,3240
2017-02-20T11:52:25.075Z,2760
2017-02-20T11:53:25.073Z,3140
2017-02-20T11:54:25.051Z,3000
2017-02-20T11:55:25.414Z,2972
2017-02-20T11:56:25.019Z,2964
2017-02-20T11:57:24.993Z,2572
2017-02-20T11:58:25.369Z,2508
2017-02-20T11:59:24.997Z,2820
2017-02-20T12:00:25.339Z,2672
2017-02-20T12:01:25.339Z,3328
2017-02-20T12:02:25.321Z,3572
2017-02-20T12:03:25.280Z,3408
2017-02-20T12:04:24.890Z,3016
2017-02-20T12:05:25.262Z,3076
2017-02-20T12:06:25.236Z,2840
2017-02-20T12:07:25.222Z,3056
2017-02-20T12:08:25.245Z,2588
2017-02-20T12:09:24.835Z,2816
2017-02-20T12:10:25.196Z,3096
2017-02-20T12:11:25.176Z,3416
2017-02-20T12:12:24.843Z,2744
2017-02-20T12:13:25.130Z,2448
2017-02-20T12:14:25.123Z,2688
2017-02-20T12:15:25.102Z,2676
2017-02-20T12:16:25.071Z,2452
2017-02-20T12:17:25.053Z,2624
2017-02-20T12:18:24.258Z,3296
2017-02-20T12:19:25.038Z,2684
2017-02-20T12:20:25.022Z,2544
2017-02-20T12:21:24.210Z,3512
2017-02-20T12:22:24.577Z,3204
2017-02-20T12:23:24.969Z,2660
2017-02-20T12:24:24.183Z,2896
2017-02-20T12:25:24.932Z,3552
2017-02-20T12:26:24.922Z,2836
2017-02-20T12:27:24.500Z,2928
2017-02-20T12:28:24.872Z,3056
2017-02-20T12:29:24.468Z,2912
2017-02-20T12:30:24.870Z,2476
2017-02-20T12:31:24.845Z,3148
2017-02-20T12:32:24.831Z,3120
2017-02-20T12:33:24.804Z,3284
2017-02-20T12:34:24.784Z,3472
2017-02-20T12:35:24.772Z,2904
2017-02-20T12:36:24.934Z,3944
2017-02-20T12:37:24.341Z,3328
2017-02-20T12:38:24.697Z,3412
2017-02-20T12:39:24.709Z,4040
2017-02-20T12:40:24.691Z,3816
2017-02-20T12:41:24.265Z,3316
2017-02-20T12:42:24.275Z,3008
2017-02-20T12:43:24.226Z,2924
2017-02-20T12:44:24.272Z,3356
2017-02-20T12:45:24.595Z,2864
2017-02-20T12:46:24.582Z,3040
2017-02-20T12:47:24.169Z,2656
2017-02-20T12:48:24.558Z,2492
2017-02-20T12:49:24.538Z,2248
2017-02-20T12:50:24.510Z,2424
2017-02-20T12:51:24.492Z,2304
2017-02-20T12:52:24.472Z,2280
2017-02-20T12:53:24.461Z,2204
2017-02-20T12:54:24.451Z,2104
2017-02-20T12:55:24.427Z,2080
2017-02-20T12:56:24.458Z,2092
2017-02-20T12:57:23.998Z,1872
2017-02-20T12:58:23.977Z,2108
2017-02-20T12:59:24.381Z,1860
2017-02-20T13:00:24.354Z,2484
2017-02-20T13:01:24.327Z,2228
2017-02-20T13:02:24.314Z,2344
2017-02-20T13:03:24.301Z,2248
2017-02-20T13:04:23.883Z,2052
2017-02-20T13:05:24.248Z,2688
2017-02-20T13:06:24.249Z,1972
2017-02-20T13:07:24.258Z,2388
2017-02-20T13:08:24.214Z,2100
2017-02-20T13:09:24.192Z,2796
2017-02-20T13:10:24.172Z,2524
2017-02-20T13:11:24.172Z,2212
2017-02-20T13:12:24.156Z,2120
2017-02-20T13:13:24.119Z,2256
2017-02-20T13:14:23.737Z,2164
2017-02-20T13:15:24.094Z,2180
2017-02-20T13:16:23.674Z,2772
2017-02-20T13:17:24.075Z,3176
2017-02-20T13:18:23.638Z,4076
2017-02-20T13:19:24.010Z,3712
2017-02-20T13:20:24.004Z,3508
2017-02-20T13:21:24.010Z,4112
2017-02-20T13:22:23.968Z,3012
2017-02-20T13:23:23.959Z,3208
2017-02-20T13:24:23.940Z,3232
2017-02-20T13:25:23.938Z,2868
2017-02-20T13:26:23.911Z,2716
2017-02-20T13:27:23.896Z,2396
2017-02-20T13:28:23.882Z,2772
2017-02-20T13:29:23.856Z,2412
2017-02-20T13:30:23.848Z,2512
2017-02-20T13:31:23.828Z,2196
2017-02-20T13:32:23.804Z,2304
2017-02-20T13:33:23.407Z,2260
2017-02-20T13:34:23.780Z,2092
2017-02-20T13:35:23.758Z,2204
2017-02-20T13:36:23.339Z,1940
2017-02-20T13:37:23.711Z,2448
2017-02-20T13:38:23.701Z,1952
2017-02-20T13:39:23.701Z,2180
2017-02-20T13:40:23.673Z,1756
2017-02-20T13:41:23.643Z,1704
2017-02-20T13:42:23.637Z,1464
2017-02-20T13:43:23.232Z,1636
2017-02-20T13:44:23.607Z,1468
2017-02-20T13:45:23.629Z,1772
2017-02-20T13:46:23.183Z,1416
2017-02-20T13:47:23.543Z,2004
2017-02-20T13:48:23.162Z,1668
2017-02-20T13:49:23.538Z,2012
2017-02-20T13:50:23.517Z,2644
2017-02-20T13:51:23.475Z,2396
2017-02-20T13:52:23.471Z,2860
2017-02-20T13:53:23.449Z,2740
2017-02-20T13:54:23.432Z,3136
2017-02-20T13:55:23.412Z,2376
2017-02-20T13:56:23.396Z,2504
2017-02-20T13:57:23.393Z,2336
2017-02-20T13:58:23.363Z,2452
2017-02-20T13:59:23.357Z,2132
2017-02-20T14:00:23.342Z,2020